Samus Swan — 9HA2333 — position and weather

sailwx.info

Track history (hours):
 
Tides and Currents Weather Stations Pressure Air Temp Water Temp Dewpoint Dewpoint Depression Visibility Wind Speed Wind Dir Waves Ship Positions

Samus Swan

Last reported at 2015-Aug-03 04:09 UTC. Time now 2015-Aug-03 04:36 UTC.
Position N 35°59' W 013°49'.

Length 106 m; draft 6.2 m.

Type: Ship. MMSI: 248363000.

Date/timePositionNaut miles runAvg speedWind from/ knotsBaromVisibWave heightAir tempDewpointWater temp
2015-Aug-03 04:09N 35°59' W 013°49'812.8
2015-Aug-03 03:32N 35°59' W 013°39'1512.7
2015-Aug-03 02:20N 35°59' W 013°20'1112.6
2015-Aug-03 01:27N 35°58' W 013°06'1112.8
2015-Aug-03 00:33N 35°58' W 012°52'1312.5
2015-Aug-02 23:32N 35°58' W 012°37'1212.3
2015-Aug-02 22:33N 35°58' W 012°22'1312.5
2015-Aug-02 21:33N 35°58' W 012°06'1312.5
2015-Aug-02 20:33N 35°58' W 011°51'1212.2
2015-Aug-02 19:33N 35°58' W 011°36'1212.2
2015-Aug-02 18:32N 35°58' W 011°21'1212.1
2015-Aug-02 17:32N 35°58' W 011°06'1212.4
2015-Aug-02 16:33N 35°59' W 010°50'1212.3
2015-Aug-02 15:32N 35°59' W 010°35'13312.1
2015-Aug-02 04:33N 35°59' W 007°50'1312.9
2015-Aug-02 03:33N 35°59' W 007°34'108 5.6
2015-Aug-01 08:17N 35°55' W 005°21'0 0.2
2015-Aug-01 07:32N 35°55' W 005°21'26711.6
2015-Jul-31 08:27N 36°47' E 000°05'36913.7
2015-Jul-30 05:33N 37°32' E 007°45'1713.5
2015-Jul-30 04:18N 37°34' E 008°06'1113.7
2015-Jul-30 03:29N 37°35' E 008°20'1314.0
2015-Jul-30 02:33N 37°36' E 008°36'1413.8
2015-Jul-30 01:33N 37°38' E 008°54'1313.5
2015-Jul-30 00:33N 37°39' E 009°10'1413.2
2015-Jul-29 23:30N 37°40' E 009°28'1313.0
2015-Jul-29 22:32N 37°39' E 009°44'1413.1
2015-Jul-29 21:28N 37°39' E 010°01'1213.0
2015-Jul-29 20:33N 37°39' E 010°17'1312.9
2015-Jul-29 19:33N 37°39' E 010°33'1312.6
2015-Jul-29 18:33N 37°38' E 010°49'1312.6
2015-Jul-29 17:33N 37°32' E 011°02'1212.5
2015-Jul-29 16:33N 37°25' E 011°16'1312.8
2015-Jul-29 15:33N 37°19' E 011°30'1313.2
2015-Jul-29 14:33N 37°12' E 011°44'1312.7
2015-Jul-29 13:30N 37°05' E 011°58'1212.6
2015-Jul-29 12:33N 37°01' E 012°12'1212.4
2015-Jul-29 11:33N 36°58' E 012°27'1212.1
2015-Jul-29 10:33N 36°55' E 012°42'1212.0
2015-Jul-29 09:33N 36°52' E 012°56'1212.0
2015-Jul-29 08:33N 36°48' E 013°11'1212.4
2015-Jul-29 07:33N 36°45' E 013°25'1312.7
2015-Jul-29 06:33N 36°41' E 013°41'1313.1
2015-Jul-29 05:33N 36°38' E 013°56'1313.3
2015-Jul-29 04:33N 36°34' E 014°12'1313.3
2015-Jul-29 03:33N 36°31' E 014°28'1312.9
2015-Jul-29 02:33N 36°30' E 014°44'1313.4
2015-Jul-29 01:33N 36°32' E 015°01'  
2015-Jul-25 03:32N 36°28' E 014°43'1313.5
2015-Jul-25 02:33N 36°30' E 014°27'1413.9
2015-Jul-25 01:33N 36°33' E 014°10'1913.9
2015-Jul-25 00:12N 36°38' E 013°47'914.1
2015-Jul-24 23:33N 36°40' E 013°36'1414.2
2015-Jul-24 22:32N 36°44' E 013°19'1414.2
2015-Jul-24 21:33N 36°47' E 013°02'1414.2
2015-Jul-24 20:33N 36°50' E 012°45'1414.1
2015-Jul-24 19:33N 36°54' E 012°28'5814.1
2015-Jul-24 15:28N 37°17' E 011°22'  
Track history (hours):
 
Tides and Currents Weather Stations Pressure Air Temp Water Temp Dewpoint Dewpoint Depression Visibility Wind Speed Wind Dir Waves Ship Positions

Samus Swan

Last reported at 2015-Aug-03 04:09 UTC. Time now 2015-Aug-03 04:36 UTC.
Position N 35°59' W 013°49'.

Length 106 m; draft 6.2 m.

Type: Ship. MMSI: 248363000.

Date/timePositionNaut miles runAvg speedWind from/ knotsBaromVisibWave heightAir tempDewpointWater temp
2015-Aug-03 04:09N 35°59' W 013°49'812.8
2015-Aug-03 03:32N 35°59' W 013°39'1512.7
2015-Aug-03 02:20N 35°59' W 013°20'1112.6
2015-Aug-03 01:27N 35°58' W 013°06'1112.8
2015-Aug-03 00:33N 35°58' W 012°52'1312.5
2015-Aug-02 23:32N 35°58' W 012°37'1212.3
2015-Aug-02 22:33N 35°58' W 012°22'1312.5
2015-Aug-02 21:33N 35°58' W 012°06'1312.5
2015-Aug-02 20:33N 35°58' W 011°51'1212.2
2015-Aug-02 19:33N 35°58' W 011°36'1212.2
2015-Aug-02 18:32N 35°58' W 011°21'1212.1
2015-Aug-02 17:32N 35°58' W 011°06'1212.4
2015-Aug-02 16:33N 35°59' W 010°50'1212.3
2015-Aug-02 15:32N 35°59' W 010°35'13312.1
2015-Aug-02 04:33N 35°59' W 007°50'1312.9
2015-Aug-02 03:33N 35°59' W 007°34'108 5.6
2015-Aug-01 08:17N 35°55' W 005°21'0 0.2
2015-Aug-01 07:32N 35°55' W 005°21'26711.6
2015-Jul-31 08:27N 36°47' E 000°05'36913.7
2015-Jul-30 05:33N 37°32' E 007°45'1713.5
2015-Jul-30 04:18N 37°34' E 008°06'1113.7
2015-Jul-30 03:29N 37°35' E 008°20'1314.0
2015-Jul-30 02:33N 37°36' E 008°36'1413.8
2015-Jul-30 01:33N 37°38' E 008°54'1313.5
2015-Jul-30 00:33N 37°39' E 009°10'1413.2
2015-Jul-29 23:30N 37°40' E 009°28'1313.0
2015-Jul-29 22:32N 37°39' E 009°44'1413.1
2015-Jul-29 21:28N 37°39' E 010°01'1213.0
2015-Jul-29 20:33N 37°39' E 010°17'1312.9
2015-Jul-29 19:33N 37°39' E 010°33'1312.6
2015-Jul-29 18:33N 37°38' E 010°49'1312.6
2015-Jul-29 17:33N 37°32' E 011°02'1212.5
2015-Jul-29 16:33N 37°25' E 011°16'1312.8
2015-Jul-29 15:33N 37°19' E 011°30'1313.2
2015-Jul-29 14:33N 37°12' E 011°44'1312.7
2015-Jul-29 13:30N 37°05' E 011°58'1212.6
2015-Jul-29 12:33N 37°01' E 012°12'1212.4
2015-Jul-29 11:33N 36°58' E 012°27'1212.1
2015-Jul-29 10:33N 36°55' E 012°42'1212.0
2015-Jul-29 09:33N 36°52' E 012°56'1212.0
2015-Jul-29 08:33N 36°48' E 013°11'1212.4
2015-Jul-29 07:33N 36°45' E 013°25'1312.7
2015-Jul-29 06:33N 36°41' E 013°41'1313.1
2015-Jul-29 05:33N 36°38' E 013°56'1313.3
2015-Jul-29 04:33N 36°34' E 014°12'1313.3
2015-Jul-29 03:33N 36°31' E 014°28'1312.9
2015-Jul-29 02:33N 36°30' E 014°44'1313.4
2015-Jul-29 01:33N 36°32' E 015°01'  
2015-Jul-25 03:32N 36°28' E 014°43'1313.5
2015-Jul-25 02:33N 36°30' E 014°27'1413.9
2015-Jul-25 01:33N 36°33' E 014°10'1913.9
2015-Jul-25 00:12N 36°38' E 013°47'914.1
2015-Jul-24 23:33N 36°40' E 013°36'1414.2
2015-Jul-24 22:32N 36°44' E 013°19'1414.2
2015-Jul-24 21:33N 36°47' E 013°02'1414.2
2015-Jul-24 20:33N 36°50' E 012°45'1414.1
2015-Jul-24 19:33N 36°54' E 012°28'5814.1
2015-Jul-24 15:28N 37°17' E 011°22'  

Dump ship's entire track history